Maple Valley, Washington
Current Conditions -  °F | °C
As of 4:53 AM on Thursday 30 Oct 2014 (Local Time) from KRNT Reporting Station
Overcast Overcast  
Wind Chill: 53°   Ceiling: 10000
Heat Index: 53°   Visibility: 10mi
Dew Point: 52°   Wind: 5mph
Humidity: 96%   Direction: 330°NNW
Pressure: 29.92"   Gusts: NA
Location:  47.41°N, 122.04°W
Report Text: KRNT 301153Z AUTO 33004KT 10SM BKN100 OVC110 12/11 A2992 RMK AO2 SLP137 70003 T01170111 10122 20111 58021 $
Loading
Personal Weather Stations






























Interactive Weather Map
Tropical Storm Tracking
New forecast layout! Learn more

10-Day Weather Forecast

Advertisements
Track Severe Weather on mobile